DW3384 Weather Reports


Display with metric or nautical units.
time (UTC)temp
F
wind
direction
speed
MPH
gust
MPH
rain 1hr
in
rain 24hr
in
rain mn
in
humidity
%
barometer
mb
20220813130057 70 286 1.0 5.0 0.00 0.00 0.00 67 1011.0
20220813124544 71 282 1.0 3.0 0.00 0.00 0.00 67 1010.8
20220813123041 70 261 0.0 2.0 0.00 0.00 0.00 66 1010.6
20220813121543 71 187 0.0 2.0 0.00 0.00 0.00 66 1010.6
20220813120037 71 203 1.0 4.0 0.00 0.00 0.00 65 1010.6
20220813114535 71 218 2.0 4.0 0.00 0.00 0.00 65 1010.5
20220813113033 71 211 1.0 6.0 0.00 0.00 0.00 64 1010.4
20220813111532 72 198 1.0 3.0 0.00 0.00 0.00 63 1010.6
20220813110046 72 176 1.0 3.0 0.00 0.00 0.00 63 1010.7
20220813104529 72 349 0.0 2.0 0.00 0.00 0.00 62 1010.7
20220813103026 72 349 0.0 3.0 0.00 0.00 0.00 61 1010.8
20220813101529 73 286 1.0 3.0 0.00 0.00 0.00 61 1010.8
20220813100024 73 281 3.0 6.0 0.00 0.00 0.00 60 1010.8
20220813094540 74 162 0.0 4.0 0.00 0.00 0.00 59 1010.6
20220813093022 73 257 0.0 4.0 0.00 0.00 0.00 59 1010.6
20220813091523 74 110 2.0 7.0 0.00 0.00 0.00 59 1010.7
20220813090019 73 113 2.0 6.0 0.00 0.00 0.00 60 1010.8
20220813084531 74 108 1.0 2.0 0.00 0.00 0.00 59 1011.0
20220813083014 75 175 0.0 2.0 0.00 0.00 0.00 57 1011.0
20220813081511 75 157 1.0 7.0 0.00 0.00 0.00 56 1010.9
20220813080016 75 141 2.0 6.0 0.00 0.00 0.00 56 1011.0
20220813074505 76 188 2.0 7.0 0.00 0.00 0.00 54 1011.0
20220813073010 77 134 4.0 11.0 0.00 0.00 0.00 54 1010.9
20220813071605 77 142 5.0 12.0 0.00 0.00 0.00 53 1010.9
20220813071501 77 99 5.0 12.0 0.00 0.00 0.00 53 1010.9
20220813070117 78 208 4.0 12.0 0.00 0.00 0.00 52 1010.9
20220813064554 79 131 4.0 13.0 0.00 0.00 0.00 51 1010.9
20220813063052 79 147 7.0 14.0 0.00 0.00 0.00 51 1010.8
20220813061641 79 108 8.0 16.0 0.00 0.00 0.00 50 1010.7
20220813060103 79 144 9.0 15.0 0.00 0.00 0.00 50 1010.8
20220813054558 79 126 8.0 14.0 0.00 0.00 0.00 49 1010.8
20220813053053 79 148 6.0 15.0 0.00 0.00 0.00 48 1010.9
20220813051543 79 123 8.0 18.0 0.00 0.00 0.00 48 1010.8
20220813050046 79 126 7.0 13.0 0.00 0.00 0.00 48 1010.6
20220813044542 79 158 6.0 12.0 0.00 0.00 0.00 48 1010.6
20220813043041 79 158 6.0 15.0 0.00 0.00 0.00 46 1010.5
20220813041551 80 122 5.0 11.0 0.00 0.00 0.00 44 1010.4
20220813040055 80 129 3.0 9.0 0.00 0.00 0.00 43 1010.3
20220813034541 80 119 4.0 9.0 0.00 0.00 0.00 41 1010.2
20220813033044 81 126 4.0 10.0 0.00 0.00 0.00 39 1010.0
20220813031604 83 132 5.0 13.0 0.00 0.00 0.00 37 1009.8
20220813030039 83 126 5.0 10.0 0.00 0.00 0.00 37 1009.6
20220813024555 84 145 5.0 12.0 0.00 0.00 0.00 38 1009.3
20220813023102 84 174 6.0 11.0 0.00 0.00 0.00 37 1009.1
20220813021537 85 121 7.0 11.0 0.00 0.00 0.00 37 1008.9
20220813020041 86 142 6.0 11.0 0.00 0.00 0.00 34 1008.8
20220813014550 87 104 4.0 8.0 0.00 0.00 0.00 28 1008.7
20220813013038 88 94 3.0 7.0 0.00 0.00 0.00 27 1008.4
20220813011533 89 130 3.0 9.0 0.00 0.00 0.00 26 1008.4
20220813010042 90 157 4.0 9.0 0.00 0.00 0.00 26 1008.3
20220813004546 91 94 5.0 11.0 0.00 0.00 0.00 26 1008.1
20220813003029 92 93 4.0 11.0 0.00 0.00 0.00 26 1007.9
20220813001533 93 147 3.0 9.0 0.00 0.00 0.00 27 1007.9
20220813000028 93 163 4.0 15.0 0.00 0.00 0.00 27 1007.9
20220812234528 94 103 3.0 11.0 0.00 0.00 0.00 22 1008.0
20220812233024 94 166 2.0 10.0 0.00 0.00 0.00 24 1008.2
20220812231523 95 205 2.0 8.0 0.00 0.00 0.00 23 1008.3
20220812230031 95 123 4.0 8.0 0.00 0.00 0.00 22 1008.4
20220812224520 94 101 5.0 13.0 0.00 0.00 0.00 23 1008.5
20220812223018 95 173 5.0 8.0 0.00 0.00 0.00 22 1008.5
20220812221517 95 187 2.0 10.0 0.00 0.00 0.00 24 1008.7
20220812220024 95 128 6.0 12.0 0.00 0.00 0.00 24 1008.8
20220812214528 95 73 2.0 9.0 0.00 0.00 0.00 29 1008.9
20220812213020 95 61 2.0 12.0 0.00 0.00 0.00 26 1009.1
20220812211508 0 0.0 0.0 0.00 0.00 0.00 1009.3
20220812210003 0 0.0 0.0 0.00 0.00 0.00 1009.3
20220812204610 0 0.0 0.0 0.00 0.00 0.00 1009.6
20220812203058 94 30 2.0 11.0 0.00 0.00 0.00 29 1009.6
20220812201553 94 355 4.0 13.0 0.00 0.00 0.00 28 1009.9
20220812200052 93 80 4.0 13.0 0.00 0.00 0.00 29 1010.2
20220812194551 93 349 5.0 12.0 0.00 0.00 0.00 28 1010.3
20220812193109 93 21 0.0 9.0 0.00 0.00 0.00 28 1010.3
20220812191604 93 79 3.0 9.0 0.00 0.00 0.00 28 1010.4
20220812190056 93 22 2.0 8.0 0.00 0.00 0.00 31 1010.5
20220812184545 94 44 1.0 8.0 0.00 0.00 0.00 31 1010.6
20220812183042 94 5 1.0 5.0 0.00 0.00 0.00 31 1010.7
20220812181538 92 13 1.0 6.0 0.00 0.00 0.00 32 1010.9
20220812180035 91 9 4.0 10.0 0.00 0.00 0.00 32 1011.0
20220812174534 90 355 2.0 4.0 0.00 0.00 0.00 32 1011.1
20220812173034 90 266 1.0 6.0 0.00 0.00 0.00 33 1011.2
20220812171531 90 147 3.0 5.0 0.00 0.00 0.00 33 1011.5
20220812170040 88 235 3.0 10.0 0.00 0.00 0.00 37 1011.7
20220812164530 87 290 1.0 9.0 0.00 0.00 0.00 38 1011.7
20220812163020 87 249 3.0 7.0 0.00 0.00 0.00 38 1011.9
20220812161526 86 269 2.0 8.0 0.00 0.00 0.00 40 1012.1
20220812160014 85 263 6.0 10.0 0.00 0.00 0.00 40 1012.2
20220812154515 84 188 2.0 9.0 0.00 0.00 0.00 42 1012.3
20220812153006 84 236 3.0 8.0 0.00 0.00 0.00 45 1012.4
20220812151505 83 136 1.0 12.0 0.00 0.00 0.00 46 1012.5
20220812150002 82 222 3.0 7.0 0.00 0.00 0.00 46 1012.5
20220812144610 81 157 2.0 6.0 0.00 0.00 0.00 49 1012.6
20220812143149 78 134 0.0 3.0 0.00 0.00 0.00 58 1012.6
20220812141551 77 72 0.0 4.0 0.00 0.00 0.00 60 1012.7
20220812140123 75 86 1.0 2.0 0.00 0.00 0.00 63 1012.6
20220812134619 73 23 0.0 2.0 0.00 0.00 0.00 67 1012.5
20220812133045 71 23 1.0 3.0 0.00 0.00 0.00 68 1012.6
20220812131544 70 98 2.0 4.0 0.00 0.00 0.00 69 1012.6